Time;durP1;ratioP1;P1;durP2;ratioP2;P2;SDS_P1;SDS_P2;PMS_P1;PMS_P2;Temp;Humidity;BMP_temperature;BMP_pressure;BME280_temperature;BME280_humidity;BME280_pressure;Samples;Min_cycle;Max_cycle;Signal;HPM_P1;HPM_P2
2023/10/10 00:00:35;;;;;;;30.30;23.40;;;;;;;-128.00;-1.00;-1.00;106102;1248;1045478;-70
2023/10/10 00:03:23;;;;;;;29.60;23.10;;;;;;;-128.00;-1.00;-1.00;105970;1248;1050665;-71
2023/10/10 00:05:49;;;;;;;29.10;24.00;;;;;;;-128.00;-1.00;-1.00;106111;1251;1004567;-70
2023/10/10 00:08:18;;;;;;;29.60;24.20;;;;;;;-128.00;-1.00;-1.00;106121;1248;1004527;-70
2023/10/10 00:10:49;;;;;;;32.00;25.30;;;;;;;-128.00;-1.00;-1.00;106099;1248;1059134;-70
2023/10/10 00:13:16;;;;;;;30.40;25.30;;;;;;;-128.00;-1.00;-1.00;106075;1248;1046250;-70
2023/10/10 00:15:50;;;;;;;36.30;30.80;;;;;;;-128.00;-1.00;-1.00;106045;1248;1004457;-70
2023/10/10 00:18:18;;;;;;;32.80;28.50;;;;;;;-128.00;-1.00;-1.00;106119;1248;1062987;-70
2023/10/10 00:23:38;;;;;;;45.40;37.90;;;;;;;-128.00;-1.00;-1.00;105957;1248;1059751;-70
2023/10/10 00:26:05;;;;;;;36.50;30.00;;;;;;;-128.00;-1.00;-1.00;106114;1248;1045822;-70
2023/10/10 00:28:34;;;;;;;37.20;28.00;;;;;;;-128.00;-1.00;-1.00;105579;1248;1005742;-70
2023/10/10 00:31:05;;;;;;;38.40;29.30;;;;;;;-128.00;-1.00;-1.00;106124;1250;1061414;-69
2023/10/10 00:33:31;;;;;;;33.30;27.50;;;;;;;-128.00;-1.00;-1.00;105955;1249;1055570;-69
2023/10/10 00:35:59;;;;;;;35.00;27.10;;;;;;;-128.00;-1.00;-1.00;105901;1249;1004495;-71
2023/10/10 00:38:29;;;;;;;34.20;26.00;;;;;;;-128.00;-1.00;-1.00;105905;1249;1004991;-71
2023/10/10 00:40:57;;;;;;;35.80;26.70;;;;;;;-128.00;-1.00;-1.00;105925;1250;1047691;-71
2023/10/10 00:43:24;;;;;;;42.10;28.90;;;;;;;-128.00;-1.00;-1.00;105969;1249;1004447;-71
2023/10/10 00:45:57;;;;;;;34.50;25.00;;;;;;;-128.00;-1.00;-1.00;105922;1249;1003954;-71
2023/10/10 00:48:29;;;;;;;37.30;25.40;;;;;;;-128.00;-1.00;-1.00;105942;1249;1058314;-71
2023/10/10 00:51:11;;;;;;;35.00;25.70;;;;;;;-128.00;-1.00;-1.00;105912;1249;1045236;-71
2023/10/10 00:53:45;;;;;;;32.60;24.00;;;;;;;-128.00;-1.00;-1.00;105943;1249;1045787;-71
2023/10/10 00:56:13;;;;;;;33.10;24.70;;;;;;;-128.00;-1.00;-1.00;105934;1249;1060986;-71
2023/10/10 00:58:40;;;;;;;33.10;25.70;;;;;;;-128.00;-1.00;-1.00;105736;1249;1055973;-71
2023/10/10 01:01:09;;;;;;;32.00;24.70;;;;;;;-128.00;-1.00;-1.00;105919;1249;1004118;-71
2023/10/10 01:03:41;;;;;;;31.20;24.70;;;;;;;-128.00;-1.00;-1.00;105874;1249;1045345;-71
2023/10/10 01:06:14;;;;;;;33.40;25.40;;;;;;;-128.00;-1.00;-1.00;105895;1249;1047677;-70
2023/10/10 01:11:42;;;;;;;28.90;22.40;;;;;;;-128.00;-1.00;-1.00;105914;1250;1057435;-71
2023/10/10 01:14:09;;;;;;;30.40;22.70;;;;;;;-128.00;-1.00;-1.00;105906;1249;1058834;-70
2023/10/10 01:16:35;;;;;;;29.20;23.20;;;;;;;-128.00;-1.00;-1.00;105877;1250;1004661;-71
2023/10/10 01:19:02;;;;;;;30.40;23.20;;;;;;;-128.00;-1.00;-1.00;105642;1249;1004550;-71
2023/10/10 01:21:42;;;;;;;27.80;22.00;;;;;;;-128.00;-1.00;-1.00;105957;1250;1004268;-71
2023/10/10 01:24:11;;;;;;;27.30;21.40;;;;;;;-128.00;-1.00;-1.00;105790;1250;1055971;-71
2023/10/10 01:26:44;;;;;;;28.40;23.40;;;;;;;-128.00;-1.00;-1.00;105909;1249;1059291;-71
2023/10/10 01:31:51;;;;;;;27.40;23.30;;;;;;;-128.00;-1.00;-1.00;105912;1250;1047811;-71
2023/10/10 01:34:31;;;;;;;27.70;23.90;;;;;;;-128.00;-1.00;-1.00;105951;1249;1061080;-71
2023/10/10 01:37:07;;;;;;;28.90;25.00;;;;;;;-128.00;-1.00;-1.00;105928;1249;1055400;-71
2023/10/10 01:40:14;;;;;;;32.90;25.10;;;;;;;-128.00;-1.00;-1.00;105911;1249;1059307;-71
2023/10/10 01:42:51;;;;;;;35.40;25.50;;;;;;;-128.00;-1.00;-1.00;105903;1249;1045927;-71
2023/10/10 01:45:19;;;;;;;34.90;27.80;;;;;;;-128.00;-1.00;-1.00;105915;1249;1047572;-70
2023/10/10 01:48:03;;;;;;;33.70;26.60;;;;;;;-128.00;-1.00;-1.00;105920;1249;1063867;-70
2023/10/10 01:50:30;;;;;;;31.80;26.00;;;;;;;-128.00;-1.00;-1.00;105957;1249;1054372;-70
2023/10/10 01:52:57;;;;;;;34.80;27.30;;;;;;;-128.00;-1.00;-1.00;105897;1250;1004019;-70
2023/10/10 01:55:24;;;;;;;34.20;26.70;;;;;;;-128.00;-1.00;-1.00;105912;1249;1005213;-70
2023/10/10 01:57:57;;;;;;;36.70;27.20;;;;;;;-128.00;-1.00;-1.00;105944;1249;1004032;-70
2023/10/10 02:00:34;;;;;;;34.40;28.40;;;;;;;-128.00;-1.00;-1.00;105895;1249;1061581;-70
2023/10/10 02:03:03;;;;;;;37.70;28.10;;;;;;;-128.00;-1.00;-1.00;105962;1249;1056401;-70
2023/10/10 02:07:57;;;;;;;38.10;29.00;;;;;;;-128.00;-1.00;-1.00;105986;1249;1004343;-71
2023/10/10 02:10:29;;;;;;;39.50;29.70;;;;;;;-128.00;-1.00;-1.00;105901;1250;1003587;-70
2023/10/10 02:12:59;;;;;;;37.90;28.20;;;;;;;-128.00;-1.00;-1.00;105939;1249;1061678;-71
2023/10/10 02:15:32;;;;;;;37.10;27.60;;;;;;;-128.00;-1.00;-1.00;105960;1249;1056082;-72
2023/10/10 02:18:06;;;;;;;39.70;28.80;;;;;;;-128.00;-1.00;-1.00;105908;1250;1058398;-71
2023/10/10 02:20:34;;;;;;;37.70;28.90;;;;;;;-128.00;-1.00;-1.00;105867;1249;1046009;-71
2023/10/10 02:23:09;;;;;;;37.40;27.50;;;;;;;-128.00;-1.00;-1.00;105958;1249;1004131;-71
2023/10/10 02:28:08;;;;;;;41.00;28.60;;;;;;;-128.00;-1.00;-1.00;105915;1249;1003847;-69
2023/10/10 02:30:35;;;;;;;37.70;28.40;;;;;;;-128.00;-1.00;-1.00;105892;1249;1059502;-70
2023/10/10 02:33:48;;;;;;;35.60;28.00;;;;;;;-128.00;-1.00;-1.00;105933;1249;1003445;-70
2023/10/10 02:38:32;;;;;;;39.90;29.70;;;;;;;-128.00;-1.00;-1.00;105980;1249;1003379;-70
2023/10/10 02:46:38;;;;;;;40.00;29.40;;;;;;;-128.00;-1.00;-1.00;105903;1249;1044563;-70
2023/10/10 02:49:12;;;;;;;34.80;27.90;;;;;;;-128.00;-1.00;-1.00;105921;1249;1047472;-70
2023/10/10 02:51:43;;;;;;;40.80;30.40;;;;;;;-128.00;-1.00;-1.00;105951;1249;1061176;-70
2023/10/10 02:56:58;;;;;;;39.90;29.70;;;;;;;-128.00;-1.00;-1.00;105955;1249;1058812;-71
2023/10/10 02:59:38;;;;;;;35.70;29.10;;;;;;;-128.00;-1.00;-1.00;105881;1249;1046562;-72
2023/10/10 03:02:21;;;;;;;38.20;31.10;;;;;;;-128.00;-1.00;-1.00;105924;1251;1047755;-71
2023/10/10 03:04:58;;;;;;;34.10;28.10;;;;;;;-128.00;-1.00;-1.00;105904;1249;1061372;-71
2023/10/10 03:07:29;;;;;;;35.90;28.50;;;;;;;-128.00;-1.00;-1.00;105893;1250;1055937;-71
2023/10/10 03:12:31;;;;;;;35.90;29.40;;;;;;;-128.00;-1.00;-1.00;105917;1249;1044967;-71
2023/10/10 03:15:12;;;;;;;36.80;29.20;;;;;;;-128.00;-1.00;-1.00;105732;1249;1004713;-70
2023/10/10 03:17:51;;;;;;;39.90;29.60;;;;;;;-128.00;-1.00;-1.00;105915;1249;1061238;-70
2023/10/10 03:25:50;;;;;;;41.10;30.90;;;;;;;-128.00;-1.00;-1.00;105939;1249;1044830;-70
2023/10/10 03:28:20;;;;;;;39.40;30.10;;;;;;;-128.00;-1.00;-1.00;105897;1249;1047303;-69
2023/10/10 03:30:52;;;;;;;42.00;31.50;;;;;;;-128.00;-1.00;-1.00;105940;1250;1061662;-70
2023/10/10 03:33:35;;;;;;;41.10;30.90;;;;;;;-128.00;-1.00;-1.00;105918;1250;1055625;-70
2023/10/10 05:25:37;;;;;;;28.90;24.40;;;;;;;-128.00;-1.00;-1.00;105783;1250;1059665;-70
2023/10/10 05:28:03;;;;;;;33.80;24.30;;;;;;;-128.00;-1.00;-1.00;105758;1249;1004517;-71
2023/10/10 05:30:45;;;;;;;34.60;24.20;;;;;;;-128.00;-1.00;-1.00;105908;1249;1004647;-71
2023/10/10 05:33:13;;;;;;;27.30;22.60;;;;;;;-128.00;-1.00;-1.00;105867;1250;1062368;-70
2023/10/10 05:35:48;;;;;;;30.60;23.20;;;;;;;-128.00;-1.00;-1.00;105932;1249;1004589;-73
2023/10/10 05:38:19;;;;;;;31.70;23.20;;;;;;;-128.00;-1.00;-1.00;105727;1249;1059957;-72
2023/10/10 05:40:51;;;;;;;35.80;23.30;;;;;;;-128.00;-1.00;-1.00;105915;1249;1044865;-72
2023/10/10 05:43:19;;;;;;;29.50;20.90;;;;;;;-128.00;-1.00;-1.00;105925;1250;1047346;-72
2023/10/10 05:45:45;;;;;;;24.10;19.90;;;;;;;-128.00;-1.00;-1.00;105896;1249;1003209;-72
2023/10/10 05:48:12;;;;;;;23.90;19.80;;;;;;;-128.00;-1.00;-1.00;105914;1249;1003682;-71
2023/10/10 05:50:42;;;;;;;25.90;21.10;;;;;;;-128.00;-1.00;-1.00;105744;1250;1004061;-71
2023/10/10 05:53:09;;;;;;;25.80;19.60;;;;;;;-128.00;-1.00;-1.00;105928;1249;1045233;-71
2023/10/10 05:55:37;;;;;;;23.50;20.00;;;;;;;-128.00;-1.00;-1.00;105780;1250;1004286;-71
2023/10/10 05:58:05;;;;;;;23.90;20.40;;;;;;;-128.00;-1.00;-1.00;105960;1249;1004802;-71
2023/10/10 06:00:36;;;;;;;22.60;19.30;;;;;;;-128.00;-1.00;-1.00;105901;1249;1005959;-70
2023/10/10 06:03:05;;;;;;;23.90;18.20;;;;;;;-128.00;-1.00;-1.00;105947;1249;1059701;-70
2023/10/10 06:05:35;;;;;;;24.50;18.20;;;;;;;-128.00;-1.00;-1.00;105865;1249;1045675;-70
2023/10/10 06:08:02;;;;;;;23.40;16.10;;;;;;;-128.00;-1.00;-1.00;105935;1249;1047012;-70
2023/10/10 06:10:32;;;;;;;20.30;16.50;;;;;;;-128.00;-1.00;-1.00;105900;1250;1004800;-70
2023/10/10 06:13:06;;;;;;;20.10;15.30;;;;;;;-128.00;-1.00;-1.00;105880;1249;1056201;-70
2023/10/10 06:15:34;;;;;;;20.50;16.10;;;;;;;-128.00;-1.00;-1.00;105821;1249;1059659;-70
2023/10/10 06:18:14;;;;;;;22.40;15.20;;;;;;;-128.00;-1.00;-1.00;105932;1249;1004291;-71
2023/10/10 06:20:42;;;;;;;17.50;15.10;;;;;;;-128.00;-1.00;-1.00;105973;1249;1048368;-70
2023/10/10 06:23:16;;;;;;;21.40;16.80;;;;;;;-128.00;-1.00;-1.00;105907;1249;1061851;-70
2023/10/10 06:25:43;;;;;;;18.00;15.40;;;;;;;-128.00;-1.00;-1.00;105930;1249;1056018;-69
2023/10/10 06:28:29;;;;;;;20.00;16.10;;;;;;;-128.00;-1.00;-1.00;105935;1249;1003805;-69
2023/10/10 06:30:55;;;;;;;18.40;16.40;;;;;;;-128.00;-1.00;-1.00;105869;1249;1045642;-69
2023/10/10 06:33:29;;;;;;;19.60;15.90;;;;;;;-128.00;-1.00;-1.00;105965;1249;1003979;-69
2023/10/10 06:41:39;;;;;;;23.20;17.80;;;;;;;-128.00;-1.00;-1.00;105097;1256;1005098;-69
2023/10/10 06:44:05;;;;;;;29.90;26.40;;;;;;;-128.00;-1.00;-1.00;105073;1257;1045353;-70
2023/10/10 06:46:32;;;;;;;25.20;21.10;;;;;;;-128.00;-1.00;-1.00;105241;1257;1005181;-70
2023/10/10 06:49:04;;;;;;;23.70;20.70;;;;;;;-128.00;-1.00;-1.00;105219;1257;1004644;-70
2023/10/10 06:51:31;;;;;;;24.00;18.70;;;;;;;-128.00;-1.00;-1.00;105179;1257;1055420;-70
2023/10/10 06:53:57;;;;;;;26.20;21.10;;;;;;;-128.00;-1.00;-1.00;105224;1257;1004543;-70
2023/10/10 06:59:26;;;;;;;28.80;25.60;;;;;;;-128.00;-1.00;-1.00;104988;1263;1046968;-70
2023/10/10 07:01:54;;;;;;;28.70;25.70;;;;;;;-128.00;-1.00;-1.00;105015;1262;1061505;-70
2023/10/10 07:04:20;;;;;;;25.40;20.90;;;;;;;-128.00;-1.00;-1.00;105019;1263;1003514;-71
2023/10/10 07:06:51;;;;;;;30.50;24.20;;;;;;;-128.00;-1.00;-1.00;105020;1263;1004163;-69
2023/10/10 07:09:27;;;;;;;30.30;23.40;;;;;;;-128.00;-1.00;-1.00;105027;1262;1046005;-70
2023/10/10 07:12:09;;;;;;;31.10;25.30;;;;;;;-128.00;-1.00;-1.00;105019;1262;1046837;-70
2023/10/10 07:14:46;;;;;;;32.50;24.50;;;;;;;-128.00;-1.00;-1.00;105108;1257;1061352;-70
2023/10/10 07:17:14;;;;;;;27.90;23.00;;;;;;;-128.00;-1.00;-1.00;105346;1257;1055548;-70
2023/10/10 07:22:35;;;;;;;27.00;22.00;;;;;;;-128.00;-1.00;-1.00;105225;1257;1047404;-69
2023/10/10 07:25:07;;;;;;;22.30;19.90;;;;;;;-128.00;-1.00;-1.00;105336;1255;1047112;-71
2023/10/10 07:27:39;;;;;;;21.40;18.30;;;;;;;-128.00;-1.00;-1.00;105155;1256;1061781;-70
2023/10/10 07:30:16;;;;;;;24.10;20.30;;;;;;;-128.00;-1.00;-1.00;105366;1256;1055898;-72
2023/10/10 07:32:50;;;;;;;28.60;23.70;;;;;;;-128.00;-1.00;-1.00;105309;1257;1058222;-75
2023/10/10 07:35:21;;;;;;;23.10;20.60;;;;;;;-128.00;-1.00;-1.00;105580;1250;1045855;-73
2023/10/10 07:37:47;;;;;;;25.10;20.90;;;;;;;-128.00;-1.00;-1.00;105879;1254;1047500;-71
2023/10/10 07:40:22;;;;;;;26.80;21.40;;;;;;;-128.00;-1.00;-1.00;105732;1250;1005111;-73
2023/10/10 07:42:58;;;;;;;27.00;21.70;;;;;;;-128.00;-1.00;-1.00;105846;1250;1055613;-71
2023/10/10 07:45:33;;;;;;;26.50;22.10;;;;;;;-128.00;-1.00;-1.00;105783;1250;1058615;-71
2023/10/10 07:50:46;;;;;;;26.50;22.90;;;;;;;-128.00;-1.00;-1.00;105903;1250;1047253;-72
2023/10/10 07:53:14;;;;;;;24.10;21.70;;;;;;;-128.00;-1.00;-1.00;105708;1250;1060883;-71
2023/10/10 07:56:00;;;;;;;23.70;21.30;;;;;;;-128.00;-1.00;-1.00;105844;1250;1005109;-71
2023/10/10 07:58:42;;;;;;;24.40;21.90;;;;;;;-128.00;-1.00;-1.00;105837;1250;1058618;-70
2023/10/10 08:01:16;;;;;;;23.10;20.80;;;;;;;-128.00;-1.00;-1.00;105747;1250;1046069;-70
2023/10/10 08:03:44;;;;;;;23.30;20.80;;;;;;;-128.00;-1.00;-1.00;105769;1250;1045984;-72
2023/10/10 08:06:25;;;;;;;22.90;20.40;;;;;;;-128.00;-1.00;-1.00;105838;1250;1004133;-71
2023/10/10 08:11:37;;;;;;;23.10;20.70;;;;;;;-128.00;-1.00;-1.00;105843;1250;1058802;-71
2023/10/10 08:14:08;;;;;;;21.00;19.00;;;;;;;-128.00;-1.00;-1.00;105848;1250;1004127;-71
2023/10/10 08:16:36;;;;;;;23.40;21.10;;;;;;;-128.00;-1.00;-1.00;105830;1250;1046376;-71
2023/10/10 08:19:07;;;;;;;22.20;19.90;;;;;;;-128.00;-1.00;-1.00;105828;1250;1004840;-70
2023/10/10 08:21:39;;;;;;;23.00;20.60;;;;;;;-128.00;-1.00;-1.00;105861;1250;1056595;-70
2023/10/10 08:24:08;;;;;;;24.00;21.30;;;;;;;-128.00;-1.00;-1.00;105799;1250;1059512;-70
2023/10/10 08:26:40;;;;;;;22.00;19.80;;;;;;;-128.00;-1.00;-1.00;105788;1250;1046748;-69
2023/10/10 08:29:08;;;;;;;22.00;19.70;;;;;;;-128.00;-1.00;-1.00;105851;1250;1047963;-70
2023/10/10 08:31:36;;;;;;;22.70;19.90;;;;;;;-128.00;-1.00;-1.00;105861;1250;1003655;-71
2023/10/10 08:34:04;;;;;;;23.50;21.10;;;;;;;-128.00;-1.00;-1.00;105862;1250;1003394;-70
2023/10/10 08:36:33;;;;;;;22.20;19.90;;;;;;;-128.00;-1.00;-1.00;105851;1250;1003941;-71
2023/10/10 08:39:17;;;;;;;22.30;20.10;;;;;;;-128.00;-1.00;-1.00;105848;1250;1046959;-70
2023/10/10 08:41:44;;;;;;;22.00;19.00;;;;;;;-128.00;-1.00;-1.00;105881;1249;1046534;-70
2023/10/10 08:44:14;;;;;;;22.00;19.70;;;;;;;-128.00;-1.00;-1.00;105893;1249;1003898;-70
2023/10/10 08:46:46;;;;;;;20.50;18.50;;;;;;;-128.00;-1.00;-1.00;105943;1250;1055585;-70
2023/10/10 08:49:14;;;;;;;28.10;25.40;;;;;;;-128.00;-1.00;-1.00;105788;1250;1059756;-70
2023/10/10 08:51:45;;;;;;;22.00;19.80;;;;;;;-128.00;-1.00;-1.00;105878;1250;1004597;-70
2023/10/10 08:54:15;;;;;;;19.60;17.30;;;;;;;-128.00;-1.00;-1.00;105924;1250;1046969;-74
2023/10/10 08:57:03;;;;;;;19.60;17.60;;;;;;;-128.00;-1.00;-1.00;105830;1250;1062227;-71
2023/10/10 08:59:31;;;;;;;20.40;18.20;;;;;;;-128.00;-1.00;-1.00;105867;1251;1056047;-70
2023/10/10 09:02:06;;;;;;;19.90;17.90;;;;;;;-128.00;-1.00;-1.00;105897;1249;1059850;-70
2023/10/10 09:04:33;;;;;;;20.90;18.70;;;;;;;-128.00;-1.00;-1.00;105862;1250;1046161;-70
2023/10/10 09:07:08;;;;;;;20.70;18.70;;;;;;;-128.00;-1.00;-1.00;105911;1250;1003511;-70
2023/10/10 09:09:35;;;;;;;18.50;16.60;;;;;;;-128.00;-1.00;-1.00;105913;1250;1061836;-69
2023/10/10 09:12:03;;;;;;;19.40;17.60;;;;;;;-128.00;-1.00;-1.00;105959;1250;1004047;-69
2023/10/10 09:14:41;;;;;;;18.70;16.80;;;;;;;-128.00;-1.00;-1.00;105964;1250;1003924;-69
2023/10/10 09:17:28;;;;;;;18.40;16.70;;;;;;;-128.00;-1.00;-1.00;105897;1250;1045615;-70
2023/10/10 09:20:00;;;;;;;17.80;16.00;;;;;;;-128.00;-1.00;-1.00;105927;1250;1047782;-70
2023/10/10 09:22:42;;;;;;;19.10;17.10;;;;;;;-128.00;-1.00;-1.00;105980;1249;1060991;-70
2023/10/10 09:25:42;;;;;;;18.10;16.30;;;;;;;-128.00;-1.00;-1.00;106006;1250;1055263;-69
2023/10/10 09:28:15;;;;;;;20.00;18.00;;;;;;;-128.00;-1.00;-1.00;105283;1257;1060337;-71
2023/10/10 09:30:49;;;;;;;18.70;16.80;;;;;;;-128.00;-1.00;-1.00;105190;1257;1046573;-70
2023/10/10 09:33:27;;;;;;;18.50;16.60;;;;;;;-128.00;-1.00;-1.00;105203;1257;1046063;-70
2023/10/10 09:36:08;;;;;;;20.00;18.10;;;;;;;-128.00;-1.00;-1.00;105237;1257;1062410;-70
2023/10/10 09:38:36;;;;;;;17.90;16.20;;;;;;;-128.00;-1.00;-1.00;105324;1257;1055303;-71
2023/10/10 09:41:11;;;;;;;16.50;14.90;;;;;;;-128.00;-1.00;-1.00;105300;1257;1058214;-71
2023/10/10 09:43:49;;;;;;;16.70;15.10;;;;;;;-128.00;-1.00;-1.00;105288;1257;1046098;-70
2023/10/10 09:46:25;;;;;;;17.00;15.30;;;;;;;-128.00;-1.00;-1.00;105187;1257;1045980;-70
2023/10/10 09:52:47;;;;;;;17.30;15.50;;;;;;;-128.00;-1.00;-1.00;105296;1257;1056074;-70
2023/10/10 09:54:25;;;;;;;17.40;15.60;;;;;;;-128.00;-1.00;-1.00;105280;1257;1059520;-71
2023/10/10 09:56:53;;;;;;;18.50;16.60;;;;;;;-128.00;-1.00;-1.00;105242;1257;1046689;-71
2023/10/10 09:59:20;;;;;;;20.10;16.30;;;;;;;-128.00;-1.00;-1.00;105312;1257;1046902;-70
2023/10/10 10:01:47;;;;;;;17.00;15.40;;;;;;;-128.00;-1.00;-1.00;105144;1257;1003477;-71
2023/10/10 10:04:24;;;;;;;20.90;18.70;;;;;;;-128.00;-1.00;-1.00;105333;1251;1004079;-70
2023/10/10 10:07:12;;;;;;;18.50;16.70;;;;;;;-128.00;-1.00;-1.00;105935;1250;1059488;-71
2023/10/10 10:10:12;;;;;;;18.80;16.80;;;;;;;-128.00;-1.00;-1.00;105882;1252;1048552;-71
2023/10/10 10:13:08;;;;;;;17.90;15.80;;;;;;;-128.00;-1.00;-1.00;105206;1257;1047261;-71
2023/10/10 10:16:08;;;;;;;18.30;16.40;;;;;;;-128.00;-1.00;-1.00;105456;1255;1061145;-71
2023/10/10 10:18:47;;;;;;;15.60;14.10;;;;;;;-128.00;-1.00;-1.00;105402;1256;1056780;-71
2023/10/10 10:21:27;;;;;;;15.70;14.00;;;;;;;-128.00;-1.00;-1.00;105356;1256;1059527;-70
2023/10/10 10:24:15;;;;;;;19.70;16.20;;;;;;;-128.00;-1.00;-1.00;105378;1259;1047139;-71
2023/10/10 10:26:43;;;;;;;15.90;13.50;;;;;;;-128.00;-1.00;-1.00;105366;1257;1046439;-70
2023/10/10 10:29:36;;;;;;;14.20;12.90;;;;;;;-128.00;-1.00;-1.00;105374;1257;1004475;-70
2023/10/10 10:32:07;;;;;;;14.60;13.20;;;;;;;-128.00;-1.00;-1.00;105438;1257;1056182;-70
2023/10/10 10:34:35;;;;;;;15.90;13.30;;;;;;;-128.00;-1.00;-1.00;105291;1261;1059563;-70
2023/10/10 10:37:07;;;;;;;15.00;13.50;;;;;;;-128.00;-1.00;-1.00;105371;1257;1004179;-69
2023/10/10 10:39:35;;;;;;;15.70;14.00;;;;;;;-128.00;-1.00;-1.00;105434;1257;1047594;-69
2023/10/10 10:42:12;;;;;;;14.80;13.40;;;;;;;-128.00;-1.00;-1.00;105324;1257;1003833;-70
2023/10/10 10:47:35;;;;;;;15.10;13.50;;;;;;;-128.00;-1.00;-1.00;105425;1256;1059235;-69
2023/10/10 10:50:17;;;;;;;14.10;12.70;;;;;;;-128.00;-1.00;-1.00;105270;1257;1047546;-69
2023/10/10 10:52:56;;;;;;;15.60;14.00;;;;;;;-128.00;-1.00;-1.00;105407;1257;1048011;-69
2023/10/10 10:55:28;;;;;;;15.60;13.30;;;;;;;-128.00;-1.00;-1.00;105397;1260;1062270;-70
2023/10/10 10:58:20;;;;;;;14.30;12.90;;;;;;;-128.00;-1.00;-1.00;105389;1256;1055988;-69
2023/10/10 11:03:44;;;;;;;14.10;12.80;;;;;;;-128.00;-1.00;-1.00;105362;1258;1046068;-70
2023/10/10 11:06:14;;;;;;;15.30;13.70;;;;;;;-128.00;-1.00;-1.00;105377;1258;1047636;-70
2023/10/10 11:09:28;;;;;;;15.00;13.40;;;;;;;-128.00;-1.00;-1.00;105432;1256;1060707;-70
2023/10/10 11:14:18;;;;;;;13.70;12.10;;;;;;;-128.00;-1.00;-1.00;105418;1256;1003643;-70
2023/10/10 11:16:45;;;;;;;15.20;13.60;;;;;;;-128.00;-1.00;-1.00;105348;1260;1046562;-70
2023/10/10 11:21:54;;;;;;;13.80;12.40;;;;;;;-128.00;-1.00;-1.00;105443;1257;1062330;-70
2023/10/10 11:24:25;;;;;;;14.70;13.20;;;;;;;-128.00;-1.00;-1.00;105388;1257;1055394;-70
2023/10/10 11:27:29;;;;;;;14.50;13.00;;;;;;;-128.00;-1.00;-1.00;105566;1251;1060424;-70
2023/10/10 11:29:50;;;;;;;14.90;13.60;;;;;;;-128.00;-1.00;-1.00;105799;1250;1046911;-71
2023/10/10 11:32:25;;;;;;;14.80;12.90;;;;;;;-128.00;-1.00;-1.00;105517;1251;1046190;-71
2023/10/10 11:34:56;;;;;;;14.60;12.90;;;;;;;-128.00;-1.00;-1.00;105919;1251;1061865;-71
2023/10/10 11:37:26;;;;;;;14.20;12.80;;;;;;;-128.00;-1.00;-1.00;105933;1249;1055435;-70
2023/10/10 11:42:59;;;;;;;12.30;10.40;;;;;;;-128.00;-1.00;-1.00;105889;1249;1045700;-70
2023/10/10 11:45:26;;;;;;;12.40;11.20;;;;;;;-128.00;-1.00;-1.00;105760;1249;1048129;-70
2023/10/10 11:48:00;;;;;;;12.20;10.90;;;;;;;-128.00;-1.00;-1.00;105699;1251;1003432;-71
2023/10/10 11:50:49;;;;;;;14.50;12.70;;;;;;;-128.00;-1.00;-1.00;105766;1251;1056826;-70
2023/10/10 11:53:23;;;;;;;14.30;12.80;;;;;;;-128.00;-1.00;-1.00;105877;1251;1058775;-70
2023/10/10 11:55:54;;;;;;;12.50;11.10;;;;;;;-128.00;-1.00;-1.00;105886;1250;1046108;-70
2023/10/10 11:58:23;;;;;;;14.30;12.60;;;;;;;-128.00;-1.00;-1.00;105773;1250;1045706;-71
2023/10/10 12:01:03;;;;;;;14.00;12.70;;;;;;;-128.00;-1.00;-1.00;105759;1251;1062902;-70
2023/10/10 12:06:17;;;;;;;17.70;13.90;;;;;;;-128.00;-1.00;-1.00;105926;1250;1058928;-70
2023/10/10 12:08:48;;;;;;;14.30;12.80;;;;;;;-128.00;-1.00;-1.00;105890;1251;1046371;-70
2023/10/10 12:11:21;;;;;;;18.00;15.10;;;;;;;-128.00;-1.00;-1.00;105779;1250;1046378;-70
2023/10/10 12:13:52;;;;;;;15.60;13.30;;;;;;;-128.00;-1.00;-1.00;105915;1250;1062735;-70
2023/10/10 12:16:25;;;;;;;13.60;12.30;;;;;;;-128.00;-1.00;-1.00;105960;1251;1054795;-70
2023/10/10 12:18:52;;;;;;;15.80;13.50;;;;;;;-128.00;-1.00;-1.00;105763;1250;1058188;-70
2023/10/10 12:21:20;;;;;;;15.00;13.30;;;;;;;-128.00;-1.00;-1.00;105664;1250;1004183;-70
2023/10/10 12:23:55;;;;;;;15.40;13.50;;;;;;;-128.00;-1.00;-1.00;105910;1250;1005828;-70
2023/10/10 12:26:22;;;;;;;17.30;14.10;;;;;;;-128.00;-1.00;-1.00;105621;1251;1061463;-70
2023/10/10 12:28:52;;;;;;;21.60;15.00;;;;;;;-128.00;-1.00;-1.00;105765;1251;1004733;-70
2023/10/10 12:31:21;;;;;;;17.30;13.60;;;;;;;-128.00;-1.00;-1.00;105927;1250;1058737;-71
2023/10/10 12:33:48;;;;;;;18.50;14.50;;;;;;;-128.00;-1.00;-1.00;105915;1250;1045834;-70
2023/10/10 12:36:16;;;;;;;15.30;13.70;;;;;;;-128.00;-1.00;-1.00;105923;1249;1004805;-70
2023/10/10 12:38:44;;;;;;;18.70;15.40;;;;;;;-128.00;-1.00;-1.00;105944;1249;1004549;-70
2023/10/10 12:41:11;;;;;;;14.80;13.30;;;;;;;-128.00;-1.00;-1.00;105754;1251;1004263;-70
2023/10/10 12:43:38;;;;;;;17.10;14.00;;;;;;;-128.00;-1.00;-1.00;105910;1249;1003678;-70
2023/10/10 12:46:07;;;;;;;16.10;14.40;;;;;;;-128.00;-1.00;-1.00;105924;1251;1004932;-70
2023/10/10 12:48:39;;;;;;;15.90;14.00;;;;;;;-128.00;-1.00;-1.00;105927;1249;1046961;-70
2023/10/10 12:51:09;;;;;;;16.30;14.20;;;;;;;-128.00;-1.00;-1.00;105954;1250;1060365;-70
2023/10/10 12:53:39;;;;;;;16.70;15.00;;;;;;;-128.00;-1.00;-1.00;105726;1250;1055825;-70
2023/10/10 12:56:16;;;;;;;16.30;14.60;;;;;;;-128.00;-1.00;-1.00;105882;1249;1059149;-69
2023/10/10 12:58:51;;;;;;;18.00;15.20;;;;;;;-128.00;-1.00;-1.00;105822;1250;1045880;-70
2023/10/10 13:01:25;;;;;;;19.00;16.50;;;;;;;-128.00;-1.00;-1.00;105785;1250;1046088;-70
2023/10/10 13:03:52;;;;;;;17.30;15.30;;;;;;;-128.00;-1.00;-1.00;105970;1250;1060713;-70
2023/10/10 13:06:22;;;;;;;17.00;15.10;;;;;;;-128.00;-1.00;-1.00;105946;1249;1004623;-70
2023/10/10 13:08:54;;;;;;;16.80;14.10;;;;;;;-128.00;-1.00;-1.00;105732;1250;1060720;-70
2023/10/10 13:12:07;;;;;;;18.60;16.40;;;;;;;-128.00;-1.00;-1.00;105921;1249;1045225;-71
2023/10/10 13:14:09;;;;;;;16.90;15.10;;;;;;;-128.00;-1.00;-1.00;105713;1250;1047210;-70
2023/10/10 13:19:09;;;;;;;18.50;16.10;;;;;;;-128.00;-1.00;-1.00;105930;1249;1057439;-71
2023/10/10 13:21:36;;;;;;;17.30;15.60;;;;;;;-128.00;-1.00;-1.00;105737;1251;1004195;-71
2023/10/10 13:24:09;;;;;;;18.90;16.00;;;;;;;-128.00;-1.00;-1.00;105910;1250;1003960;-70
2023/10/10 13:26:36;;;;;;;19.30;15.90;;;;;;;-128.00;-1.00;-1.00;105582;1250;1046389;-71
2023/10/10 13:29:02;;;;;;;19.50;16.60;;;;;;;-128.00;-1.00;-1.00;105585;1250;1004271;-70
2023/10/10 13:31:29;;;;;;;18.80;16.60;;;;;;;-128.00;-1.00;-1.00;105957;1250;1004484;-71
2023/10/10 13:33:56;;;;;;;17.40;15.60;;;;;;;-128.00;-1.00;-1.00;105913;1249;1004209;-71
2023/10/10 13:36:22;;;;;;;18.50;16.50;;;;;;;-128.00;-1.00;-1.00;105902;1250;1004760;-71
2023/10/10 13:38:51;;;;;;;17.80;16.00;;;;;;;-128.00;-1.00;-1.00;105922;1249;1005869;-71
2023/10/10 13:41:23;;;;;;;19.30;16.30;;;;;;;-128.00;-1.00;-1.00;105982;1249;1061153;-71
2023/10/10 13:43:52;;;;;;;15.90;14.30;;;;;;;-128.00;-1.00;-1.00;105917;1249;1056711;-71
2023/10/10 13:46:23;;;;;;;17.40;15.40;;;;;;;-128.00;-1.00;-1.00;105909;1249;1059733;-71
2023/10/10 13:48:50;;;;;;;16.90;15.20;;;;;;;-128.00;-1.00;-1.00;105762;1250;1045870;-71
2023/10/10 13:51:16;;;;;;;18.10;14.80;;;;;;;-128.00;-1.00;-1.00;105906;1250;1004599;-71
2023/10/10 13:53:44;;;;;;;18.10;16.00;;;;;;;-128.00;-1.00;-1.00;105743;1250;1004221;-71
2023/10/10 13:56:19;;;;;;;23.50;16.00;;;;;;;-128.00;-1.00;-1.00;105946;1250;1004634;-71
2023/10/10 13:58:49;;;;;;;19.30;16.70;;;;;;;-128.00;-1.00;-1.00;105925;1250;1059048;-71
2023/10/10 14:01:29;;;;;;;18.10;15.60;;;;;;;-128.00;-1.00;-1.00;105904;1250;1046249;-71
2023/10/10 14:04:03;;;;;;;17.60;15.60;;;;;;;-128.00;-1.00;-1.00;106005;1249;1047732;-71
2023/10/10 14:06:45;;;;;;;20.40;16.90;;;;;;;-128.00;-1.00;-1.00;105745;1250;1062738;-71
2023/10/10 14:09:21;;;;;;;17.20;15.20;;;;;;;-128.00;-1.00;-1.00;105971;1249;1058605;-71
2023/10/10 14:11:50;;;;;;;20.70;16.40;;;;;;;-128.00;-1.00;-1.00;105912;1249;1058911;-70
2023/10/10 14:14:18;;;;;;;18.80;16.70;;;;;;;-128.00;-1.00;-1.00;105939;1249;1046137;-70
2023/10/10 14:16:45;;;;;;;20.90;18.40;;;;;;;-128.00;-1.00;-1.00;105990;1249;1047028;-71
2023/10/10 14:19:11;;;;;;;25.30;18.20;;;;;;;-128.00;-1.00;-1.00;105948;1249;1004824;-71
2023/10/10 14:21:38;;;;;;;27.50;24.50;;;;;;;-128.00;-1.00;-1.00;105925;1249;1004240;-71
2023/10/10 14:24:09;;;;;;;22.80;19.50;;;;;;;-128.00;-1.00;-1.00;105922;1249;1004145;-71
2023/10/10 14:26:36;;;;;;;17.70;15.00;;;;;;;-128.00;-1.00;-1.00;105885;1250;1045779;-71